Wetterdaten: Woche 21.11.22 - 27.11.22 (KW47)
Datum Zeit Temp. Aussen Temp. o. S. Temp +5cm Feuchte Auss Luftdruck Regen Sonnenschein Regendauer Solar Windben Empfang
21.11.2022 00:00 6,9 C 6,0 C 3,3 C 96 % 1004,7 hPa 0,2 l/m 0,00 h 0,33 h 0 W/m 12,2 km/h (2 Bft) 96,55 %
21.11.2022 01:00 6,0 C 5,1 C 2,8 C 96 % 1005,3 hPa 0,4 l/m 0,00 h 0,63 h 0 W/m 9,8 km/h (2 Bft) 96,69 %
21.11.2022 02:00 5,0 C 4,1 C 2,1 C 97 % 1005,5 hPa 0,2 l/m 0,00 h 0,37 h 0 W/m 5,8 km/h (2 Bft) 98,03 %
21.11.2022 03:00 4,5 C 3,9 C 1,7 C 97 % 1005,7 hPa 0,2 l/m 0,00 h 0,00 h 0 W/m 3,2 km/h (1 Bft) 96,58 %
21.11.2022 04:00 4,4 C 3,9 C 1,7 C 98 % 1005,7 hPa 0,0 l/m 0,00 h 0,00 h 0 W/m 3,7 km/h (1 Bft) 97,30 %
21.11.2022 05:00 4,3 C 3,6 C 1,7 C 98 % 1005,8 hPa 0,0 l/m 0,00 h 0,00 h 0 W/m 1,8 km/h (1 Bft) 98,15 %
21.11.2022 06:00 4,1 C 3,3 C 1,7 C 98 % 1005,4 hPa 0,0 l/m 0,00 h 0,00 h 0 W/m 0,8 km/h (0 Bft) 96,93 %
21.11.2022 07:00 4,2 C 3,9 C 2,0 C 98 % 1005,2 hPa 0,0 l/m 0,00 h 0,00 h 0 W/m 0,3 km/h (0 Bft) 96,72 %
21.11.2022 08:00 4,5 C 4,1 C 2,3 C 98 % 1005,0 hPa 0,0 l/m 0,00 h 0,00 h 12 W/m 0,3 km/h (0 Bft) 97,44 %
21.11.2022 09:00 5,4 C 5,1 C 3,2 C 99 % 1004,7 hPa 0,2 l/m 0,00 h 0,23 h 24 W/m 4,3 km/h (1 Bft) 96,77 %
21.11.2022 10:00 6,1 C 6,4 C 3,8 C 99 % 1004,3 hPa 0,0 l/m 0,27 h 0,20 h 108 W/m 7,2 km/h (2 Bft) 95,69 %
21.11.2022 11:00 6,6 C 6,9 C 4,2 C 99 % 1003,7 hPa 0,0 l/m 0,00 h 0,00 h 98 W/m 10,8 km/h (2 Bft) 95,68 %
21.11.2022 12:00 7,3 C 7,9 C 4,4 C 97 % 1002,6 hPa 0,2 l/m 0,03 h 0,00 h 101 W/m 9,1 km/h (2 Bft) 98,45 %
21.11.2022 13:00 8,6 C 10,2 C 4,5 C 91 % 1001,6 hPa 0,0 l/m 0,73 h 0,00 h 207 W/m 11,3 km/h (2 Bft) 95,25 %
21.11.2022 14:00 8,7 C 8,6 C 4,0 C 85 % 1000,5 hPa 0,0 l/m 0,50 h 0,00 h 122 W/m 9,2 km/h (2 Bft) 99,05 %
21.11.2022 15:00 8,1 C 7,4 C 4,3 C 85 % 999,2 hPa 0,0 l/m 0,00 h 0,00 h 46 W/m 11,3 km/h (2 Bft) 95,84 %
21.11.2022 16:00 7,2 C 6,7 C 3,9 C 85 % 998,0 hPa 0,0 l/m 0,00 h 0,00 h 9 W/m 10,6 km/h (2 Bft) 95,74 %
21.11.2022 17:00 7,1 C 6,5 C 3,9 C 86 % 997,1 hPa 0,0 l/m 0,00 h 0,00 h 0 W/m 14,0 km/h (3 Bft) 98,30 %
21.11.2022 18:00 7,0 C 6,1 C 3,3 C 86 % 996,2 hPa 0,0 l/m 0,00 h 0,00 h 0 W/m 11,1 km/h (2 Bft) 96,78 %
21.11.2022 19:00 6,8 C 6,1 C 3,3 C 88 % 995,7 hPa 0,0 l/m 0,00 h 0,03 h 0 W/m 13,6 km/h (3 Bft) 97,01 %
21.11.2022 20:00 6,9 C 6,3 C 3,3 C 87 % 994,9 hPa 0,0 l/m 0,00 h 0,00 h 0 W/m 16,7 km/h (3 Bft) 97,15 %
21.11.2022 21:00 7,0 C 6,2 C 2,8 C 88 % 993,9 hPa 0,0 l/m 0,00 h 0,50 h 0 W/m 17,0 km/h (3 Bft) 96,87 %
21.11.2022 22:00 6,8 C 6,1 C 2,7 C 91 % 993,4 hPa 0,2 l/m 0,00 h 0,13 h 0 W/m 16,8 km/h (3 Bft) 97,37 %
21.11.2022 23:00 6,8 C 6,1 C 2,8 C 91 % 992,9 hPa 0,0 l/m 0,00 h 0,70 h 0 W/m 18,9 km/h (3 Bft) 97,58 %
22.11.2022 00:00 6,7 C 6,0 C 2,8 C 93 % 992,6 hPa 0,4 l/m 0,00 h 0,40 h 0 W/m 19,2 km/h (3 Bft) 97,77 %
22.11.2022 01:00 6,5 C 5,6 C 2,8 C 94 % 992,6 hPa 0,2 l/m 0,00 h 0,47 h 0 W/m 16,2 km/h (3 Bft) 95,30 %
22.11.2022 02:00 6,3 C 5,4 C 2,8 C 95 % 992,8 hPa 0,0 l/m 0,00 h 0,00 h 0 W/m 7,8 km/h (2 Bft) 97,59 %
22.11.2022 03:00 5,8 C 4,8 C 2,2 C 96 % 993,1 hPa 0,0 l/m 0,00 h 0,00 h 0 W/m 5,6 km/h (1 Bft) 96,37 %
22.11.2022 04:00 5,2 C 4,3 C 1,7 C 96 % 993,7 hPa 0,0 l/m 0,00 h 0,00 h 0 W/m 3,4 km/h (1 Bft) 96,94 %
22.11.2022 05:00 4,7 C 3,9 C 1,5 C 96 % 994,0 hPa 0,0 l/m 0,00 h 0,00 h 0 W/m 2,9 km/h (1 Bft) 97,65 %
22.11.2022 06:00 4,3 C 3,9 C 1,1 C 96 % 994,3 hPa 0,0 l/m 0,00 h 0,00 h 0 W/m 4,3 km/h (1 Bft) 96,13 %
22.11.2022 07:00 4,2 C 3,6 C 1,1 C 96 % 994,6 hPa 0,0 l/m 0,00 h 0,00 h 0 W/m 6,6 km/h (2 Bft) 96,86 %
22.11.2022 08:00 4,1 C 3,6 C 1,1 C 95 % 994,9 hPa 0,2 l/m 0,00 h 0,00 h 12 W/m 11,6 km/h (2 Bft) 96,38 %
22.11.2022 09:00 4,6 C 4,6 C 1,5 C 94 % 995,3 hPa 0,0 l/m 0,33 h 0,00 h 93 W/m 13,7 km/h (3 Bft) 96,53 %
22.11.2022 10:00 6,8 C 7,1 C 2,8 C 89 % 995,5 hPa 0,0 l/m 0,57 h 0,00 h 155 W/m 17,1 km/h (3 Bft) 93,73 %
22.11.2022 11:00 7,6 C 7,5 C 4,0 C 84 % 995,2 hPa 0,0 l/m 0,00 h 0,00 h 75 W/m 17,8 km/h (3 Bft) 99,08 %
22.11.2022 12:00 8,1 C 8,0 C 4,7 C 84 % 994,7 hPa 0,0 l/m 0,00 h 0,00 h 95 W/m 18,1 km/h (3 Bft) 97,31 %
22.11.2022 13:00 8,6 C 8,3 C 5,0 C 82 % 994,5 hPa 0,0 l/m 0,00 h 0,00 h 94 W/m 15,0 km/h (3 Bft) 95,95 %
22.11.2022 14:00 8,6 C 7,9 C 4,6 C 81 % 994,6 hPa 0,0 l/m 0,00 h 0,00 h 36 W/m 15,1 km/h (3 Bft) 97,80 %
22.11.2022 15:00 8,3 C 7,8 C 4,4 C 83 % 994,6 hPa 0,0 l/m 0,00 h 0,00 h 23 W/m 14,7 km/h (3 Bft) 97,51 %
22.11.2022 16:00 8,2 C 7,4 C 4,2 C 85 % 994,7 hPa 0,0 l/m 0,00 h 0,00 h 7 W/m 20,4 km/h (4 Bft) 95,94 %
22.11.2022 17:00 7,3 C 6,2 C 3,0 C 92 % 995,3 hPa 0,2 l/m 0,00 h 0,07 h 0 W/m 14,8 km/h (3 Bft) 97,45 %
22.11.2022 18:00 7,0 C 6,1 C 3,3 C 95 % 995,6 hPa 0,2 l/m 0,00 h 0,00 h 0 W/m 12,2 km/h (2 Bft) 95,43 %
22.11.2022 19:00 7,1 C 6,1 C 3,3 C 96 % 996,0 hPa 0,2 l/m 0,00 h 0,17 h 0 W/m 14,7 km/h (3 Bft) 98,22 %
22.11.2022 20:00 7,1 C 6,3 C 3,3 C 97 % 996,1 hPa 0,2 l/m 0,00 h 0,27 h 0 W/m 12,3 km/h (3 Bft) 97,08 %
22.11.2022 21:00 7,2 C 6,7 C 3,7 C 97 % 996,2 hPa 0,0 l/m 0,00 h 0,13 h 0 W/m 8,9 km/h (2 Bft) 98,08 %
22.11.2022 22:00 7,6 C 7,2 C 3,9 C 97 % 996,4 hPa 0,2 l/m 0,00 h 0,27 h 0 W/m 10,8 km/h (2 Bft) 94,91 %
22.11.2022 23:00 7,9 C 7,4 C 4,1 C 95 % 996,7 hPa 0,0 l/m 0,00 h 0,00 h 0 W/m 13,6 km/h (3 Bft) 97,67 %
23.11.2022 00:00 8,5 C 7,9 C 4,4 C 93 % 997,1 hPa 0,0 l/m 0,00 h 0,00 h 0 W/m 22,1 km/h (4 Bft) 98,54 %
23.11.2022 01:00 8,8 C 8,2 C 5,0 C 91 % 997,4 hPa 0,0 l/m 0,00 h 0,00 h 0 W/m 16,6 km/h (3 Bft) 94,27 %
23.11.2022 02:00 8,9 C 8,3 C 5,4 C 90 % 997,8 hPa 0,0 l/m 0,00 h 0,00 h 0 W/m 23,3 km/h (4 Bft) 98,92 %
23.11.2022 03:00 8,9 C 8,3 C 5,3 C 90 % 998,1 hPa 0,0 l/m 0,00 h 0,00 h 0 W/m 21,1 km/h (4 Bft) 97,23 %
23.11.2022 04:00 8,7 C 8,0 C 5,0 C 91 % 998,3 hPa 0,0 l/m 0,00 h 0,00 h 0 W/m 15,6 km/h (3 Bft) 96,76 %
23.11.2022 05:00 8,7 C 8,1 C 5,0 C 90 % 998,4 hPa 0,0 l/m 0,00 h 0,00 h 0 W/m 17,6 km/h (3 Bft) 98,15 %
23.11.2022 06:00 8,7 C 8,0 C 5,0 C 88 % 998,4 hPa 0,0 l/m 0,00 h 0,00 h 0 W/m 16,1 km/h (3 Bft) 97,30 %
23.11.2022 07:00 8,6 C 7,8 C 5,0 C 90 % 998,5 hPa 0,0 l/m 0,00 h 0,00 h 0 W/m 11,0 km/h (2 Bft) 97,01 %
23.11.2022 08:00 8,3 C 7,8 C 5,0 C 91 % 998,8 hPa 0,0 l/m 0,00 h 0,00 h 16 W/m 11,1 km/h (2 Bft) 98,51 %
23.11.2022 09:00 8,6 C 8,1 C 5,0 C 86 % 999,3 hPa 0,0 l/m 0,37 h 0,00 h 81 W/m 18,4 km/h (3 Bft) 93,76 %
23.11.2022 10:00 9,5 C 8,8 C 5,2 C 82 % 999,5 hPa 0,0 l/m 0,80 h 0,00 h 191 W/m 18,1 km/h (3 Bft) 97,99 %
23.11.2022 11:00 9,8 C 9,4 C 5,6 C 79 % 999,2 hPa 0,0 l/m 0,00 h 0,00 h 41 W/m 21,2 km/h (4 Bft) 95,32 %
23.11.2022 12:00 10,0 C 9,5 C 5,7 C 78 % 998,4 hPa 0,0 l/m 0,00 h 0,00 h 73 W/m 22,6 km/h (4 Bft) 94,79 %
23.11.2022 13:00 10,1 C 10,4 C 5,8 C 78 % 998,1 hPa 0,0 l/m 0,53 h 0,00 h 180 W/m 22,3 km/h (4 Bft) 99,00 %
23.11.2022 14:00 10,1 C 10,1 C 5,6 C 78 % 997,6 hPa 0,0 l/m 0,73 h 0,00 h 152 W/m 24,3 km/h (4 Bft) 96,36 %
23.11.2022 15:00 9,7 C 9,0 C 5,5 C 79 % 997,6 hPa 0,0 l/m 0,00 h 0,00 h 39 W/m 18,7 km/h (3 Bft) 97,97 %
23.11.2022 16:00 9,1 C 8,0 C 3,9 C 85 % 998,6 hPa 1,2 l/m 0,00 h 0,77 h 10 W/m 18,2 km/h (3 Bft) 98,01 %
23.11.2022 17:00 8,1 C 6,9 C 3,3 C 93 % 999,7 hPa 1,8 l/m 0,00 h 1,00 h 0 W/m 14,1 km/h (3 Bft) 95,94 %
23.11.2022 18:00 7,5 C 6,6 C 3,3 C 95 % 1000,3 hPa 0,6 l/m 0,00 h 0,43 h 0 W/m 11,3 km/h (2 Bft) 95,84 %
23.11.2022 19:00 7,4 C 6,7 C 3,3 C 95 % 1000,9 hPa 0,0 l/m 0,00 h 0,03 h 0 W/m 8,0 km/h (2 Bft) 97,44 %
23.11.2022 20:00 7,0 C 6,0 C 3,0 C 96 % 1001,8 hPa 0,0 l/m 0,00 h 0,00 h 0 W/m 5,5 km/h (1 Bft) 97,01 %
23.11.2022 21:00 6,5 C 5,6 C 2,8 C 96 % 1002,5 hPa 0,0 l/m 0,00 h 0,00 h 0 W/m 5,1 km/h (1 Bft) 96,65 %
23.11.2022 22:00 6,7 C 6,1 C 3,0 C 97 % 1003,1 hPa 0,2 l/m 0,00 h 0,03 h 0 W/m 13,2 km/h (3 Bft) 98,15 %
23.11.2022 23:00 7,7 C 7,1 C 3,9 C 97 % 1003,8 hPa 0,2 l/m 0,00 h 0,07 h 0 W/m 16,5 km/h (3 Bft) 97,02 %
24.11.2022 00:00 7,8 C 7,2 C 3,9 C 96 % 1004,5 hPa 0,0 l/m 0,00 h 0,00 h 0 W/m 16,0 km/h (3 Bft) 95,05 %
24.11.2022 01:00 8,1 C 7,5 C 3,9 C 94 % 1004,8 hPa 0,0 l/m 0,00 h 0,00 h 0 W/m 16,8 km/h (3 Bft) 97,72 %
24.11.2022 02:00 8,3 C 7,6 C 3,9 C 92 % 1005,2 hPa 0,0 l/m 0,00 h 0,00 h 0 W/m 16,0 km/h (3 Bft) 98,05 %
24.11.2022 03:00 8,0 C 7,2 C 3,9 C 92 % 1005,5 hPa 0,0 l/m 0,00 h 0,00 h 0 W/m 11,6 km/h (2 Bft) 96,79 %
24.11.2022 04:00 8,3 C 7,7 C 4,1 C 92 % 1005,8 hPa 0,0 l/m 0,00 h 0,20 h 0 W/m 17,2 km/h (3 Bft) 98,44 %
24.11.2022 05:00 8,7 C 7,9 C 4,4 C 91 % 1006,1 hPa 0,0 l/m 0,00 h 0,10 h 0 W/m 19,8 km/h (4 Bft) 96,30 %
24.11.2022 06:00 9,0 C 8,3 C 4,9 C 90 % 1006,6 hPa 0,0 l/m 0,00 h 0,00 h 0 W/m 24,6 km/h (4 Bft) 94,44 %
24.11.2022 07:00 8,7 C 7,8 C 4,8 C 89 % 1007,4 hPa 0,0 l/m 0,00 h 0,00 h 0 W/m 19,4 km/h (3 Bft) 96,73 %
24.11.2022 08:00 8,3 C 7,8 C 4,5 C 88 % 1008,5 hPa 0,0 l/m 0,00 h 0,00 h 10 W/m 17,2 km/h (3 Bft) 96,92 %
24.11.2022 09:00 8,5 C 7,9 C 5,0 C 89 % 1009,6 hPa 0,0 l/m 0,00 h 0,00 h 42 W/m 17,8 km/h (3 Bft) 93,89 %
24.11.2022 10:00 9,0 C 8,7 C 5,5 C 89 % 1010,5 hPa 0,0 l/m 0,30 h 0,00 h 114 W/m 15,3 km/h (3 Bft) 98,29 %
24.11.2022 11:00 9,6 C 9,3 C 5,9 C 87 % 1011,1 hPa 0,0 l/m 0,00 h 0,00 h 48 W/m 15,9 km/h (3 Bft) 96,37 %
24.11.2022 12:00 10,4 C 10,3 C 6,6 C 85 % 1011,5 hPa 0,0 l/m 0,00 h 0,00 h 55 W/m 14,4 km/h (3 Bft) 97,21 %
24.11.2022 13:00 11,4 C 13,2 C 6,9 C 82 % 1011,6 hPa 0,0 l/m 0,93 h 0,00 h 261 W/m 16,6 km/h (3 Bft) 97,58 %
24.11.2022 14:00 11,7 C 12,0 C 7,1 C 80 % 1011,8 hPa 0,0 l/m 1,00 h 0,00 h 172 W/m 16,0 km/h (3 Bft) 97,79 %
24.11.2022 15:00 11,5 C 10,8 C 6,6 C 80 % 1011,8 hPa 0,0 l/m 0,10 h 0,00 h 40 W/m 10,1 km/h (2 Bft) 97,51 %
24.11.2022 16:00 10,4 C 9,0 C 5,4 C 84 % 1012,0 hPa 0,0 l/m 0,00 h 0,00 h 9 W/m 5,1 km/h (1 Bft) 97,15 %
24.11.2022 17:00 9,2 C 7,9 C 4,5 C 87 % 1012,3 hPa 0,0 l/m 0,00 h 0,00 h 0 W/m 3,4 km/h (1 Bft) 95,65 %
24.11.2022 18:00 8,5 C 7,7 C 4,4 C 87 % 1012,5 hPa 0,0 l/m 0,00 h 0,00 h 0 W/m 12,2 km/h (2 Bft) 98,27 %
24.11.2022 19:00 7,8 C 6,7 C 3,6 C 87 % 1012,7 hPa 0,0 l/m 0,00 h 0,00 h 0 W/m 7,3 km/h (2 Bft) 96,58 %
24.11.2022 20:00 6,9 C 5,8 C 3,0 C 89 % 1012,5 hPa 0,0 l/m 0,00 h 0,00 h 0 W/m 8,2 km/h (2 Bft) 97,37 %
24.11.2022 21:00 6,3 C 5,6 C 2,8 C 91 % 1012,5 hPa 0,0 l/m 0,00 h 0,00 h 0 W/m 14,9 km/h (3 Bft) 97,22 %
24.11.2022 22:00 6,3 C 5,7 C 2,8 C 91 % 1012,5 hPa 0,0 l/m 0,00 h 0,00 h 0 W/m 13,0 km/h (3 Bft) 97,15 %
24.11.2022 23:00 6,8 C 6,1 C 3,3 C 92 % 1012,2 hPa 0,0 l/m 0,00 h 0,00 h 0 W/m 14,4 km/h (3 Bft) 96,00 %
25.11.2022 00:00 6,9 C 6,1 C 3,2 C 92 % 1011,7 hPa 0,0 l/m 0,00 h 0,00 h 0 W/m 13,0 km/h (3 Bft) 97,10 %
25.11.2022 01:00 7,1 C 6,4 C 3,4 C 93 % 1011,4 hPa 0,0 l/m 0,00 h 0,00 h 0 W/m 16,0 km/h (3 Bft) 98,44 %
25.11.2022 02:00 7,5 C 6,8 C 3,9 C 93 % 1011,0 hPa 0,0 l/m 0,00 h 0,00 h 0 W/m 19,3 km/h (3 Bft) 95,51 %
25.11.2022 03:00 7,7 C 7,2 C 4,3 C 93 % 1011,0 hPa 0,0 l/m 0,00 h 0,00 h 0 W/m 17,7 km/h (3 Bft) 98,30 %
25.11.2022 04:00 8,1 C 7,4 C 4,2 C 93 % 1011,3 hPa 0,2 l/m 0,00 h 0,33 h 0 W/m 14,7 km/h (3 Bft) 97,39 %
25.11.2022 05:00 8,1 C 7,2 C 3,9 C 94 % 1011,9 hPa 0,8 l/m 0,00 h 0,60 h 0 W/m 6,1 km/h (2 Bft) 95,80 %
25.11.2022 06:00 8,1 C 7,2 C 4,3 C 96 % 1012,2 hPa 0,0 l/m 0,00 h 0,00 h 0 W/m 6,6 km/h (2 Bft) 98,44 %
25.11.2022 07:00 8,1 C 7,2 C 4,4 C 96 % 1012,8 hPa 0,0 l/m 0,00 h 0,00 h 0 W/m 5,9 km/h (2 Bft) 97,60 %
25.11.2022 08:00 7,5 C 6,4 C 3,9 C 97 % 1013,5 hPa 0,0 l/m 0,00 h 0,00 h 11 W/m 2,1 km/h (1 Bft) 94,19 %
25.11.2022 09:00 7,4 C 7,0 C 4,0 C 97 % 1014,3 hPa 0,0 l/m 0,37 h 0,00 h 70 W/m 3,4 km/h (1 Bft) 98,14 %
25.11.2022 10:00 8,9 C 9,1 C 5,3 C 97 % 1014,9 hPa 0,0 l/m 0,63 h 0,00 h 161 W/m 14,9 km/h (3 Bft) 95,92 %
25.11.2022 11:00 10,1 C 9,8 C 5,9 C 93 % 1015,6 hPa 0,0 l/m 0,00 h 0,00 h 56 W/m 16,0 km/h (3 Bft) 96,06 %
25.11.2022 12:00 10,8 C 10,8 C 6,8 C 89 % 1016,2 hPa 0,0 l/m 0,00 h 0,00 h 58 W/m 15,0 km/h (3 Bft) 97,28 %
25.11.2022 13:00 11,5 C 13,2 C 7,2 C 86 % 1016,8 hPa 0,0 l/m 0,83 h 0,00 h 242 W/m 14,1 km/h (3 Bft) 97,69 %
25.11.2022 14:00 11,5 C 11,9 C 7,2 C 84 % 1017,5 hPa 0,0 l/m 0,90 h 0,00 h 157 W/m 10,5 km/h (2 Bft) 98,92 %
25.11.2022 15:00 11,3 C 10,6 C 7,1 C 84 % 1018,2 hPa 0,0 l/m 0,20 h 0,00 h 48 W/m 9,7 km/h (2 Bft) 96,31 %
25.11.2022 16:00 10,5 C 9,5 C 6,1 C 86 % 1019,0 hPa 0,0 l/m 0,00 h 0,00 h 12 W/m 5,9 km/h (2 Bft) 97,16 %
25.11.2022 17:00 10,4 C 9,5 C 6,0 C 87 % 1019,9 hPa 0,0 l/m 0,00 h 0,00 h 0 W/m 4,4 km/h (1 Bft) 97,29 %
25.11.2022 18:00 9,6 C 8,6 C 5,4 C 89 % 1021,0 hPa 0,0 l/m 0,00 h 0,00 h 0 W/m 5,3 km/h (1 Bft) 98,77 %
25.11.2022 19:00 9,1 C 8,0 C 4,9 C 91 % 1022,1 hPa 0,0 l/m 0,00 h 0,00 h 0 W/m 4,2 km/h (1 Bft) 95,59 %
25.11.2022 20:00 8,7 C 7,7 C 4,8 C 92 % 1023,0 hPa 0,0 l/m 0,00 h 0,00 h 0 W/m 5,0 km/h (1 Bft) 97,93 %
25.11.2022 21:00 8,0 C 6,8 C 4,0 C 93 % 1023,9 hPa 0,0 l/m 0,00 h 0,00 h 0 W/m 3,3 km/h (1 Bft) 97,93 %
25.11.2022 22:00 7,1 C 6,0 C 3,3 C 94 % 1024,7 hPa 0,0 l/m 0,00 h 0,00 h 0 W/m 3,0 km/h (1 Bft) 95,37 %
25.11.2022 23:00 6,6 C 5,5 C 2,9 C 96 % 1025,3 hPa 0,0 l/m 0,00 h 0,00 h 0 W/m 0,4 km/h (0 Bft) 96,98 %
26.11.2022 00:00 6,0 C 4,5 C 1,9 C 96 % 1026,0 hPa 0,0 l/m 0,00 h 0,00 h 0 W/m 0,0 km/h (0 Bft) 96,99 %
26.11.2022 01:00 5,2 C 4,2 C 1,7 C 96 % 1026,7 hPa 0,0 l/m 0,00 h 0,00 h 0 W/m 0,0 km/h (0 Bft) 98,86 %
26.11.2022 02:00 5,7 C 4,8 C 2,4 C 97 % 1027,2 hPa 0,2 l/m 0,00 h 0,00 h 0 W/m 3,0 km/h (1 Bft) 95,96 %
26.11.2022 03:00 5,4 C 4,4 C 2,2 C 97 % 1027,2 hPa 0,0 l/m 0,00 h 0,00 h 0 W/m 3,3 km/h (1 Bft) 98,08 %
26.11.2022 04:00 5,0 C 3,8 C 1,6 C 97 % 1027,5 hPa 0,0 l/m 0,00 h 0,00 h 0 W/m 1,1 km/h (0 Bft) 96,34 %
26.11.2022 05:00 4,5 C 3,7 C 1,3 C 97 % 1028,2 hPa 0,0 l/m 0,00 h 0,00 h 0 W/m 1,7 km/h (1 Bft) 96,37 %
26.11.2022 06:00 4,5 C 3,4 C 1,5 C 98 % 1028,8 hPa 0,0 l/m 0,00 h 0,00 h 0 W/m 0,1 km/h (0 Bft) 95,88 %
26.11.2022 07:00 3,9 C 2,8 C 1,1 C 97 % 1029,1 hPa 0,0 l/m 0,00 h 0,00 h 3 W/m 1,3 km/h (1 Bft) 98,15 %
26.11.2022 08:00 3,6 C 3,0 C 1,1 C 98 % 1029,7 hPa 0,0 l/m 0,00 h 0,00 h 18 W/m 4,7 km/h (1 Bft) 96,87 %
26.11.2022 09:00 4,0 C 3,8 C 1,9 C 98 % 1029,9 hPa 0,0 l/m 0,23 h 0,00 h 67 W/m 6,1 km/h (2 Bft) 95,78 %
26.11.2022 10:00 5,1 C 5,5 C 2,8 C 98 % 1030,3 hPa 0,0 l/m 0,47 h 0,00 h 120 W/m 5,7 km/h (1 Bft) 99,07 %
26.11.2022 11:00 6,1 C 6,6 C 4,1 C 99 % 1030,3 hPa 0,0 l/m 0,00 h 0,00 h 111 W/m 6,7 km/h (2 Bft) 95,02 %
26.11.2022 12:00 7,1 C 7,6 C 5,0 C 99 % 1030,2 hPa 0,0 l/m 0,00 h 0,00 h 116 W/m 8,9 km/h (2 Bft) 97,28 %
26.11.2022 13:00 8,0 C 8,7 C 5,9 C 98 % 1030,0 hPa 0,0 l/m 0,13 h 0,00 h 130 W/m 7,9 km/h (2 Bft) 97,01 %
26.11.2022 14:00 8,9 C 9,3 C 6,2 C 97 % 1029,8 hPa 0,0 l/m 0,43 h 0,00 h 110 W/m 9,1 km/h (2 Bft) 96,86 %
26.11.2022 15:00 8,8 C 8,3 C 5,6 C 95 % 1029,4 hPa 0,0 l/m 0,00 h 0,00 h 35 W/m 9,6 km/h (2 Bft) 98,86 %
26.11.2022 16:00 8,5 C 7,7 C 5,4 C 93 % 1029,4 hPa 0,0 l/m 0,00 h 0,00 h 14 W/m 10,6 km/h (2 Bft) 96,36 %
26.11.2022 17:00 7,7 C 6,8 C 4,5 C 93 % 1029,4 hPa 0,0 l/m 0,00 h 0,00 h 0 W/m 11,7 km/h (2 Bft) 97,15 %
26.11.2022 18:00 7,0 C 6,1 C 3,9 C 93 % 1029,3 hPa 0,0 l/m 0,00 h 0,00 h 0 W/m 10,5 km/h (2 Bft) 98,76 %
26.11.2022 19:00 6,5 C 5,6 C 3,3 C 94 % 1029,0 hPa 0,0 l/m 0,00 h 0,00 h 0 W/m 10,9 km/h (2 Bft) 94,89 %
26.11.2022 20:00 6,0 C 5,2 C 3,0 C 95 % 1028,6 hPa 0,0 l/m 0,00 h 0,00 h 0 W/m 7,0 km/h (2 Bft) 98,01 %
26.11.2022 21:00 5,6 C 5,0 C 2,8 C 95 % 1028,8 hPa 0,0 l/m 0,00 h 0,00 h 0 W/m 9,5 km/h (2 Bft) 96,65 %
26.11.2022 22:00 5,4 C 4,8 C 2,7 C 95 % 1028,9 hPa 0,0 l/m 0,00 h 0,00 h 0 W/m 10,0 km/h (2 Bft) 98,15 %
26.11.2022 23:00 5,0 C 4,4 C 2,2 C 95 % 1028,0 hPa 0,0 l/m 0,00 h 0,00 h 0 W/m 11,6 km/h (2 Bft) 96,23 %
27.11.2022 00:00 4,8 C 4,2 C 2,2 C 95 % 1027,2 hPa 0,0 l/m 0,00 h 0,00 h 0 W/m 12,2 km/h (2 Bft) 98,10 %
27.11.2022 01:00 4,8 C 4,2 C 2,2 C 95 % 1026,6 hPa 0,0 l/m 0,00 h 0,00 h 0 W/m 11,2 km/h (2 Bft) 97,30 %
27.11.2022 02:00 4,8 C 4,3 C 2,2 C 95 % 1026,3 hPa 0,0 l/m 0,00 h 0,00 h 0 W/m 13,9 km/h (3 Bft) 95,11 %
27.11.2022 03:00 4,8 C 4,3 C 2,1 C 94 % 1025,8 hPa 0,0 l/m 0,00 h 0,00 h 0 W/m 16,9 km/h (3 Bft) 97,93 %
27.11.2022 04:00 4,8 C 4,4 C 2,1 C 93 % 1025,0 hPa 0,0 l/m 0,00 h 0,00 h 0 W/m 18,4 km/h (3 Bft) 95,46 %
27.11.2022 05:00 4,9 C 4,4 C 2,2 C 93 % 1024,5 hPa 0,0 l/m 0,00 h 0,00 h 0 W/m 20,3 km/h (4 Bft) 95,53 %
27.11.2022 06:00 4,9 C 4,4 C 2,1 C 92 % 1024,0 hPa 0,0 l/m 0,00 h 0,00 h 0 W/m 19,4 km/h (3 Bft) 96,19 %
27.11.2022 07:00 4,8 C 4,3 C 1,7 C 92 % 1023,4 hPa 0,0 l/m 0,00 h 0,00 h 0 W/m 17,0 km/h (3 Bft) 96,69 %
27.11.2022 08:00 5,1 C 4,6 C 2,2 C 92 % 1022,8 hPa 0,0 l/m 0,00 h 0,00 h 11 W/m 13,5 km/h (3 Bft) 96,31 %
27.11.2022 09:00 5,8 C 5,6 C 2,8 C 91 % 1022,6 hPa 0,0 l/m 0,23 h 0,00 h 55 W/m 14,7 km/h (3 Bft) 97,17 %
27.11.2022 10:00 6,5 C 6,2 C 3,3 C 89 % 1022,0 hPa 0,0 l/m 0,00 h 0,00 h 62 W/m 16,9 km/h (3 Bft) 96,94 %
27.11.2022 11:00 7,1 C 6,7 C 3,5 C 88 % 1021,3 hPa 0,0 l/m 0,00 h 0,13 h 69 W/m 17,7 km/h (3 Bft) 97,32 %
27.11.2022 12:00 7,6 C 7,4 C 4,0 C 86 % 1020,2 hPa 0,0 l/m 0,00 h 0,00 h 98 W/m 18,3 km/h (3 Bft) 96,87 %
27.11.2022 13:00 8,5 C 8,4 C 4,9 C 82 % 1019,4 hPa 0,0 l/m 0,00 h 0,00 h 111 W/m 17,4 km/h (3 Bft) 98,58 %
27.11.2022 14:00 8,7 C 8,0 C 4,1 C 83 % 1018,4 hPa 0,2 l/m 0,00 h 0,40 h 49 W/m 12,6 km/h (3 Bft) 94,91 %
27.11.2022 15:00 8,3 C 7,8 C 3,9 C 85 % 1017,9 hPa 0,0 l/m 0,00 h 0,27 h 15 W/m 13,0 km/h (3 Bft) 98,44 %
27.11.2022 16:00 8,1 C 7,3 C 3,9 C 85 % 1017,3 hPa 0,0 l/m 0,00 h 0,00 h 6 W/m 17,8 km/h (3 Bft) 97,25 %
27.11.2022 17:00 7,9 C 7,2 C 3,9 C 85 % 1016,8 hPa 0,0 l/m 0,00 h 0,00 h 0 W/m 20,2 km/h (4 Bft) 96,44 %
27.11.2022 18:00 7,7 C 7,2 C 3,9 C 85 % 1015,7 hPa 0,0 l/m 0,00 h 0,00 h 0 W/m 18,8 km/h (3 Bft) 98,94 %
27.11.2022 19:00 7,5 C 6,7 C 3,4 C 86 % 1015,1 hPa 0,0 l/m 0,00 h 0,07 h 0 W/m 19,9 km/h (4 Bft) 96,14 %
27.11.2022 20:00 7,1 C 6,5 C 3,2 C 88 % 1014,7 hPa 0,0 l/m 0,00 h 0,13 h 0 W/m 19,9 km/h (4 Bft) 97,18 %
27.11.2022 21:00 7,0 C 6,2 C 3,3 C 88 % 1013,8 hPa 0,0 l/m 0,00 h 0,03 h 0 W/m 20,5 km/h (4 Bft) 98,43 %
27.11.2022 22:00 7,1 C 6,4 C 3,3 C 88 % 1013,1 hPa 0,0 l/m 0,00 h 0,00 h 0 W/m 18,6 km/h (3 Bft) 96,43 %
27.11.2022 23:00 6,9 C 6,0 C 2,5 C 91 % 1012,8 hPa 0,4 l/m 0,00 h 0,57 h 0 W/m 18,5 km/h (3 Bft) 97,57 %
Min-Datum _ 26.11.22 26.11.22 22.11.22 23.11.22 22.11.22 - - - - 21.11.22 24.11.22
_ Min-Zeit 08:00 04:54 05:36 14:20 01:00 - - - - 03:06 06:32
Minimum _ 3,6 C 2,8 C 1,1 C 77 % 992,4 hPa - - - - 0,0 km/h (0 Bft) 16,67 %
Max-Datum _ 24.11.22 24.11.22 25.11.22 21.11.22 26.11.22 23.11.22 23.11.22 21.11.22 21.11.22 22.11.22 21.11.22
_ Max-Zeit 14:46 13:02 13:54 08:50 11:22 17:06 10:37 00:08 13:22 16:40 00:00
Maximum _ 11,8 C 14,4 C 7,8 C 99 % 1030,5 hPa 1,8 l/m 0,08 h 0,07 h 412 W/m 45,1 km/h
S-SO (6 Bft)
100,00 %
Durchschnitt _ 7,3 C 6,8 C 3,8 C 91 % 1010,1 hPa #9,2 l/m #11:38 h #10:08 h 76 W/m 12,1 km/h (2 Bft) 96,97 %
© 2022 W. Hausmann